Latest Weather Observations for Maitland Airport

IDN60801

Issued at 10:03 am EDT Tuesday 22 January 2019 (issued every 10 minutes, with the page automatically refreshed every 10 minutes)

About weather observations | Map of weather stations | Latest weather observations for NSW | Other Formats
Station Details ID: 061428 Name: MAITLAND AIRPORT AWS Lat: -32.70 Lon: 151.49 Height: 27.5 m
Data from the previous 72 hours. | See also: Recent months at Maitland Airport
Date/Time
EDT
Temp
°C
App
Temp
°C
Dew
Point
°C
Rel
Hum
%
Delta-T
°C
Wind Press
QNH
hPa
Press
MSL
hPa
Rain since
9am
mm
Dir  Spd
km/h
Gust
km/h
Spd
kts
Gust
kts
22/10:00am 27.2 31.6 22.8 77 3.0 WSW 4 11 2 6 1015.7 1015.6 0.0
22/09:30am 25.7 30.3 22.4 82 2.2 WSW 2 9 1 5 1015.9 1015.8 0.0
22/09:00am 25.7 29.2 22.8 84 2.0 W 9 15 5 8 1016.0 1015.9 0.0
22/08:30am 24.4 28.5 22.3 88 1.4 NW 4 9 2 5 1016.1 1016.0 0.0
22/08:00am 23.3 27.0 22.6 96 0.5 NW 7 11 4 6 1016.0 1015.9 0.0
22/07:30am 21.5 24.6 21.5 100 0.0 NW 7 9 4 5 1015.6 1015.5 0.0
22/07:00am 20.8 23.2 20.8 100 0.0 NE 9 11 5 6 1015.5 1015.4 0.0
22/06:30am 19.7 22.1 19.7 100 0.0 SSW 6 11 3 6 1015.1 1015.0 0.0
22/06:00am 19.6 22.7 19.6 100 0.0 ESE 2 7 1 4 1014.9 1014.8 0.0
22/05:30am 19.6 23.1 19.6 100 0.0 CALM 0 0 0 0 1014.9 1014.8 0.0
22/05:00am 19.5 23.0 19.5 100 0.0 CALM 0 0 0 0 1014.7 1014.6 0.0
22/04:30am 19.7 23.3 19.7 100 0.0 CALM 0 6 0 3 1014.6 1014.5 0.0
22/04:00am 19.6 22.0 19.6 100 0.0 ESE 6 7 3 4 1014.8 1014.7 0.0
22/03:30am 20.1 23.9 20.1 100 0.0 CALM 0 0 0 0 1014.9 1014.8 0.0
22/03:00am 20.4 24.3 20.4 100 0.0 CALM 0 0 0 0 1015.0 1014.9 0.0
22/02:30am 20.9 25.1 20.9 100 0.0 CALM 0 0 0 0 1015.2 1015.1 0.0
22/02:00am 21.2 23.8 21.2 100 0.0 ESE 9 9 5 5 1015.4 1015.3 0.0
22/01:30am 21.8 25.8 21.3 97 0.3 ESE 2 7 1 4 1015.7 1015.6 0.0
22/01:00am 22.2 25.5 21.4 95 0.5 ESE 6 7 3 4 1015.8 1015.7 0.0
22/12:30am 22.3 25.4 21.5 95 0.5 ESE 7 11 4 6 1016.1 1016.0 0.0
22/12:00am 22.5 27.0 21.5 94 0.7 CALM 0 0 0 0 1016.1 1016.0 0.0
 
Date/Time
EDT
Temp
°C
App
Temp
°C
Dew
Point
°C
Rel
Hum
%
Delta-T
°C
Wind Press
QNH
hPa
Press
MSL
hPa
Rain since
9am
mm
Dir  Spd
km/h
Gust
km/h
Spd
kts
Gust
kts
21/11:30pm 23.2 27.7 21.5 90 1.1 CALM 0 0 0 0 1016.2 1016.1 0.0
21/11:00pm 24.0 27.1 21.5 86 1.7 ESE 7 9 4 5 1016.4 1016.3 0.0
21/10:30pm 24.6 27.4 21.5 83 2.1 ESE 9 13 5 7 1016.4 1016.3 0.0
21/10:00pm 25.3 28.4 22.2 83 2.1 ESE 9 11 5 6 1016.2 1016.1 0.0
21/09:30pm 25.4 29.4 23.1 87 1.6 ESE 7 9 4 5 1016.2 1016.1 0.0
21/09:00pm 25.7 29.6 23.0 85 1.8 ESE 7 13 4 7 1016.2 1016.1 0.0
21/08:30pm 25.9 29.5 23.8 88 1.4 ESE 11 15 6 8 1015.7 1015.6 0.0
21/08:00pm 26.0 28.4 23.7 87 1.6 ESE 17 20 9 11 1015.8 1015.7 0.0
21/07:30pm 26.6 28.3 23.1 81 2.4 E 19 24 10 13 1015.5 1015.4 0.0
21/07:00pm 27.0 29.2 23.3 80 2.5 E 17 20 9 11 1015.4 1015.3 0.0
21/06:30pm 26.9 30.4 23.6 82 2.3 ESE 11 15 6 8 1015.4 1015.3 0.0
21/06:00pm 27.0 30.0 23.3 80 2.5 ESE 13 17 7 9 1015.6 1015.5 0.0
21/05:30pm 27.7 30.8 23.5 78 2.9 E 13 19 7 10 1015.4 1015.3 0.0
21/05:00pm 28.1 30.2 23.7 77 3.0 E 19 24 10 13 1015.4 1015.3 0.0
21/04:30pm 27.7 30.0 24.1 81 2.5 E 19 26 10 14 1015.7 1015.6 0.0
21/04:00pm 27.3 28.6 23.3 79 2.7 E 22 30 12 16 1015.7 1015.6 0.0
21/03:30pm 28.6 30.2 22.8 71 4.0 E 19 24 10 13 1015.7 1015.6 0.0
21/03:00pm 28.5 31.4 21.8 67 4.5 NE 9 17 5 9 1016.0 1015.9 0.0
21/02:30pm 28.5 31.8 21.5 66 4.7 NNE 6 9 3 5 1016.8 1016.7 0.0
21/02:00pm 28.3 31.3 20.8 63 5.0 NE 6 11 3 6 1017.3 1017.2 0.0
21/01:30pm 27.6 31.1 22.1 72 3.7 SE 7 9 4 5 1017.6 1017.5 0.0
21/01:00pm 27.7 31.3 22.0 71 3.8 SW 6 11 3 6 1017.6 1017.5 0.0
21/12:30pm 27.4 30.9 22.8 76 3.1 SSE 9 15 5 8 1017.6 1017.5 0.0
21/12:00pm 26.0 28.7 22.9 83 2.1 SE 13 19 7 10 1017.9 1017.8 0.0
21/11:30am 25.0 28.7 23.2 90 1.2 S 9 13 5 7 1018.3 1018.2 0.0
21/11:00am 24.5 28.0 22.8 90 1.1 WSW 9 13 5 7 1018.7 1018.6 0.0
21/10:30am 24.3 29.7 23.3 94 0.7 CALM 0 11 0 6 1018.8 1018.7 0.0
21/10:00am 24.2 29.6 23.2 94 0.7 CALM 0 0 0 0 1018.8 1018.7 0.0
21/09:30am 23.8 29.1 23.0 95 0.5 CALM 0 0 0 0 1018.9 1018.8 0.0
21/09:00am 23.5 28.5 23.2 98 0.2 SSW 2 7 1 4 1019.0 1018.9 1.2
21/08:30am 22.7 26.7 22.7 100 0.0 SSW 6 7 3 4 1019.2 1019.1 1.2
21/08:00am 22.4 27.3 22.4 100 0.0 CALM 0 7 0 4 1018.8 1018.7 1.2
21/07:30am 22.3 27.2 22.3 100 0.0 CALM 0 0 0 0 1018.6 1018.5 0.6
21/07:00am 22.0 25.6 22.0 100 0.0 SSW 6 6 3 3 1018.2 1018.1 0.6
21/06:30am 21.6 26.1 21.6 100 0.0 CALM 0 0 0 0 1018.0 1017.9 0.6
21/06:00am 21.7 26.3 21.7 100 0.0 CALM 0 0 0 0 1018.0 1017.9 0.6
21/05:30am 21.8 26.4 21.8 100 0.0 CALM 0 0 0 0 1017.6 1017.5 0.6
21/05:00am 21.9 25.4 21.9 100 0.0 SSW 6 9 3 5 1017.6 1017.5 0.6
21/04:30am 21.9 24.9 21.9 100 0.0 SSW 9 11 5 6 1017.9 1017.8 0.6
21/04:00am 22.2 25.3 22.2 100 0.0 SSW 9 11 5 6 1017.3 1017.2 0.6
21/03:30am 22.7 25.7 22.7 100 0.0 SSW 11 15 6 8 1017.7 1017.6 0.6
21/03:00am 23.5 26.2 23.5 100 0.0 SSW 15 32 8 17 1018.5 1018.4 0.2
21/02:30am 23.6 27.5 23.6 100 0.0 SSE 9 11 5 6 1018.5 1018.4 0.0
21/02:00am 23.8 28.4 23.8 100 0.0 ESE 6 9 3 5 1018.6 1018.5 0.0
21/01:30am 23.7 27.7 23.7 100 0.0 ESE 9 13 5 7 1018.6 1018.5 0.0
21/01:11am 23.8 28.2 23.8 100 0.0 ESE 7 13 4 7 1018.5 1018.4 0.0
21/01:00am 23.7 26.5 23.7 100 0.0 SE 15 20 8 11 1018.3 1018.2 0.0
21/12:30am 23.7 27.7 23.7 100 0.0 ESE 9 11 5 6 1018.7 1018.6 0.0
21/12:19am 23.7 27.7 23.7 100 0.0 ESE 9 11 5 6 1018.8 1018.7 0.0
21/12:18am 23.7 27.7 23.7 100 0.0 ESE 9 11 5 6 1018.8 1018.7 0.0
21/12:00am 24.2 28.0 24.0 99 0.1 ESE 11 17 6 9 1018.6 1018.5 0.0
 
Date/Time
EDT
Temp
°C
App
Temp
°C
Dew
Point
°C
Rel
Hum
%
Delta-T
°C
Wind Press
QNH
hPa
Press
MSL
hPa
Rain since
9am
mm
Dir  Spd
km/h
Gust
km/h
Spd
kts
Gust
kts
20/11:30pm 24.6 28.2 23.7 95 0.6 SE 11 15 6 8 1018.4 1018.3 0.0
20/11:00pm 24.6 27.8 23.7 95 0.6 SE 13 19 7 10 1018.5 1018.4 0.0
20/10:46pm 24.5 26.9 23.6 95 0.6 SE 17 24 9 13 1018.4 1018.3 0.0
20/10:30pm 24.6 27.4 23.7 95 0.6 SE 15 22 8 12 1018.3 1018.2 0.0
20/10:00pm 24.5 26.4 23.5 94 0.7 SE 19 24 10 13 1018.0 1017.9 0.0
20/09:30pm 24.5 26.7 23.3 93 0.8 ESE 17 24 9 13 1017.9 1017.8 0.0
20/09:00pm 24.4 26.6 23.2 93 0.8 SE 17 20 9 11 1017.9 1017.8 0.0
20/08:30pm 24.4 26.4 23.0 92 0.9 SE 17 26 9 14 1017.4 1017.3 0.0
20/08:00pm 24.6 26.6 23.0 91 1.1 SE 17 24 9 13 1017.3 1017.2 0.0
20/07:30pm 25.0 27.1 23.1 89 1.3 SE 17 22 9 12 1016.9 1016.8 0.0
20/07:00pm 25.3 26.8 23.0 87 1.6 ESE 20 28 11 15 1016.7 1016.6 0.0
20/06:30pm 25.6 26.6 22.9 85 1.8 ESE 22 30 12 16 1016.1 1016.0 0.0
20/06:00pm 25.9 27.5 22.8 83 2.1 SE 19 30 10 16 1016.2 1016.1 0.0
20/05:30pm 26.6 28.0 22.9 80 2.5 SE 20 28 11 15 1016.5 1016.4 0.0
20/05:00pm 26.9 28.9 22.9 79 2.7 SE 17 24 9 13 1016.6 1016.5 0.0
20/04:30pm 27.5 29.1 22.9 76 3.1 ESE 19 26 10 14 1016.7 1016.6 0.0
20/04:00pm 27.8 30.0 23.2 76 3.1 ESE 17 22 9 12 1016.8 1016.7 0.0
20/03:30pm 27.4 29.4 23.0 77 3.0 ESE 17 24 9 13 1017.4 1017.3 0.0
20/03:00pm 27.5 29.1 22.9 76 3.1 ESE 19 26 10 14 1017.6 1017.5 0.0
20/02:30pm 27.7 29.8 23.1 76 3.1 E 17 24 9 13 1018.2 1018.1 0.0
20/02:00pm 27.5 29.3 23.3 78 2.9 E 19 28 10 15 1018.8 1018.7 0.0
20/01:30pm 26.3 28.3 23.0 82 2.2 E 17 24 9 13 1019.1 1019.0 0.0
20/01:00pm 25.8 28.7 23.1 85 1.8 E 13 17 7 9 1019.7 1019.6 0.0
20/12:30pm 25.4 28.4 23.3 88 1.4 E 13 19 7 10 1020.1 1020.0 0.0
20/12:00pm 24.8 27.4 22.7 88 1.4 ESE 13 20 7 11 1020.3 1020.2 0.0
20/11:41am 24.6 28.2 23.0 91 1.1 ESE 9 15 5 8 1020.3 1020.2 0.0
20/11:30am 24.7 28.2 23.5 93 0.8 ESE 11 17 6 9 1020.4 1020.3 0.0
20/11:00am 23.8 26.6 23.0 95 0.5 SSE 13 17 7 9 1020.5 1020.4 0.0
20/10:30am 23.3 26.2 23.1 99 0.1 SE 13 17 7 9 1020.6 1020.5 0.0
20/10:00am 22.8 25.5 22.8 100 0.0 SSE 13 17 7 9 1020.7 1020.6 0.0
20/09:40am 22.4 24.9 22.4 100 0.0 SSE 13 17 7 9 1020.7 1020.6 0.0
20/09:33am 22.4 25.3 22.4 100 0.0 SSE 11 17 6 9 1020.7 1020.6 0.0
20/09:30am 22.3 24.7 22.3 100 0.0 SSE 13 22 7 12 1020.7 1020.6 0.0
20/09:00am 22.2 24.6 22.2 100 0.0 SSE 13 15 7 8 1020.6 1020.5 0.4
20/08:30am 21.8 24.0 21.8 100 0.0 SSE 13 19 7 10 1020.4 1020.3 0.4
20/08:00am 21.7 24.9 21.7 100 0.0 SSE 7 13 4 7 1020.2 1020.1 0.4
20/07:30am 21.5 26.0 21.5 100 0.0 CALM 0 0 0 0 1019.7 1019.6 0.4
20/07:00am 21.4 25.8 21.4 100 0.0 CALM 0 0 0 0 1019.7 1019.6 0.4
20/06:56am 21.4 25.8 21.4 100 0.0 CALM 0 0 0 0 1019.6 1019.5 0.2
20/06:30am 21.3 25.3 21.3 100 0.0 SSE 2 6 1 3 1019.2 1019.1 0.2
20/06:23am 21.4 24.7 21.4 100 0.0 SSE 6 7 3 4 1019.2 1019.1 0.2
20/06:00am 21.2 24.2 21.2 100 0.0 SSE 7 9 4 5 1019.0 1018.9 0.2
20/05:30am 21.1 24.2 21.1 100 0.0 SSE 6 6 3 3 1018.9 1018.8 0.2
20/05:24am 21.1 24.2 21.1 100 0.0 SSE 6 7 3 4 1018.8 1018.7 0.2
20/05:00am 21.1 24.0 21.1 100 0.0 SSE 7 9 4 5 1018.7 1018.6 0.2
20/04:55am 21.1 24.0 21.1 100 0.0 SSE 7 9 4 5 1018.7 1018.6 0.2
20/04:30am 21.0 23.9 21.0 100 0.0 SSE 7 9 4 5 1018.7 1018.6 0.2
20/04:00am 21.1 24.0 21.1 100 0.0 SSE 7 11 4 6 1018.8 1018.7 0.2
20/03:30am 21.3 24.3 21.3 100 0.0 SSE 7 11 4 6 1018.9 1018.8 0.2
20/03:00am 21.4 24.1 21.4 100 0.0 SSE 9 13 5 7 1019.0 1018.9 0.2
20/02:30am 21.6 24.8 21.6 100 0.0 SSE 7 11 4 6 1019.1 1019.0 0.2
20/02:00am 21.7 24.6 21.7 100 0.0 SSE 9 11 5 6 1019.2 1019.1 0.2
20/01:30am 21.5 23.9 21.5 100 0.0 S 11 17 6 9 1019.4 1019.3 0.2
20/01:00am 21.3 24.0 21.3 100 0.0 S 9 13 5 7 1019.8 1019.7 0.2
20/12:30am 21.3 23.6 21.3 100 0.0 S 11 15 6 8 1020.1 1020.0 0.0
20/12:22am 21.3 23.6 21.3 100 0.0 S 11 13 6 7 1020.2 1020.1 0.0
20/12:00am 21.3 23.6 21.3 100 0.0 S 11 17 6 9 1020.3 1020.2 0.0
 
Date/Time
EDT
Temp
°C
App
Temp
°C
Dew
Point
°C
Rel
Hum
%
Delta-T
°C
Wind Press
QNH
hPa
Press
MSL
hPa
Rain since
9am
mm
Dir  Spd
km/h
Gust
km/h
Spd
kts
Gust
kts
19/11:59pm 21.2 23.4 21.2 100 0.0 S 11 17 6 9 1020.3 1020.2 0.0
19/11:30pm 21.2 23.8 21.2 100 0.0 S 9 11 5 6 1020.6 1020.5 0.0
19/11:01pm 21.3 23.6 21.3 100 0.0 S 11 15 6 8 1020.5 1020.4 0.0
19/11:00pm 21.3 23.6 21.3 100 0.0 S 11 15 6 8 1020.5 1020.4 0.0
19/10:30pm 21.3 23.6 21.3 100 0.0 S 11 15 6 8 1020.5 1020.4 0.0
19/10:22pm 21.3 23.6 21.3 100 0.0 S 11 15 6 8 1020.5 1020.4 0.0
19/10:00pm 21.4 24.1 21.4 100 0.0 S 9 13 5 7 1020.3 1020.2 0.0
19/09:30pm 21.5 24.3 21.5 100 0.0 S 9 11 5 6 1020.0 1019.9 0.0
19/09:00pm 21.7 23.8 21.7 100 0.0 S 13 17 7 9 1019.5 1019.4 0.0
19/08:30pm 21.8 24.7 21.8 100 0.0 SSE 9 13 5 7 1019.4 1019.3 0.0
19/08:12pm 21.9 24.9 21.9 100 0.0 SSE 9 15 5 8 1019.4 1019.3 0.0
19/08:01pm 22.1 25.7 22.1 100 0.0 SSE 6 11 3 6 1019.4 1019.3 0.0
19/08:00pm 22.1 25.6 22.1 100 0.0 SSE 7 11 4 6 1019.4 1019.3 0.0
19/07:54pm 22.2 24.9 22.2 100 0.0 SSE 11 20 6 11 1019.2 1019.1 0.0
19/07:30pm 22.6 23.6 22.1 97 0.3 SSE 20 30 11 16 1018.6 1018.5 0.0
19/07:00pm 23.4 24.8 21.8 91 1.1 SE 17 22 9 12 1018.1 1018.0 0.0
19/06:30pm 23.9 25.8 22.0 89 1.3 SE 15 22 8 12 1017.4 1017.3 0.0
19/06:00pm 24.2 25.6 21.9 87 1.5 SSE 17 24 9 13 1017.0 1016.9 0.0
19/05:30pm 24.8 25.8 22.1 85 1.8 SE 20 30 11 16 1016.6 1016.5 0.0
19/05:00pm 25.3 26.2 22.0 82 2.2 SE 20 28 11 15 1016.5 1016.4 0.0
19/04:30pm 25.7 25.9 22.0 80 2.5 SE 24 32 13 17 1016.4 1016.3 0.0
19/04:00pm 26.7 26.4 21.9 75 3.2 SE 26 39 14 21 1016.1 1016.0 0.0
19/03:30pm 28.5 27.8 22.5 70 4.1 SSE 30 39 16 21 1015.6 1015.5 0.0
19/03:00pm 28.0 26.6 22.0 70 4.0 SE 32 41 17 22 1015.4 1015.3 0.0
19/02:30pm 31.9 31.8 22.9 59 6.2 SSE 28 39 15 21 1014.9 1014.8 0.0
19/02:00pm 32.7 32.8 23.3 57 6.5 ESE 28 39 15 21 1014.6 1014.5 0.0
19/01:30pm 32.9 33.2 23.0 56 6.8 SE 26 39 14 21 1014.3 1014.2 0.0
19/01:00pm 34.1 33.8 22.5 50 8.0 SE 28 35 15 19 1014.0 1013.9 0.0
19/12:30pm 35.2 34.7 21.5 45 9.3 SSE 26 39 14 21 1013.9 1013.8 0.0
19/12:00pm 37.0 37.9 18.5 33 12.2 SSE 11 20 6 11 1013.6 1013.5 0.0
19/11:30am 36.0 36.2 17.7 34 11.9 SSW 13 17 7 9 1013.4 1013.3 0.0
19/11:00am 35.3 36.6 17.0 33 11.7 NW 6 11 3 6 1013.2 1013.1 0.0
19/10:30am 33.7 36.5 20.8 46 8.7 N 7 11 4 6 1013.6 1013.5 0.0

Other Formats:

Comma delimited format used in spreadsheet applications
http://www.bom.gov.au/fwo/IDN60801/IDN60801.94650.axf

JavaScript Object Notation format (JSON) in row-major order
http://www.bom.gov.au/fwo/IDN60801/IDN60801.94650.json